Time;durP1;ratioP1;P1;durP2;ratioP2;P2;SDS_P1;SDS_P2;PMS_P1;PMS_P2;Temp;Humidity;BMP_temperature;BMP_pressure;BME280_temperature;BME280_humidity;BME280_pressure;Samples;Min_cycle;Max_cycle;Signal;HPM_P1;HPM_P2
2022/03/16 00:00:10;;;;;;;0.20;0.20;;;;;;;7.70;67.98;101671.53;5098972;28;20039;-73
2022/03/16 00:02:38;;;;;;;0.20;0.20;;;;;;;7.71;68.16;101670.41;5098872;28;20020;-72
2022/03/16 00:05:07;;;;;;;0.20;0.20;;;;;;;7.62;68.80;101663.97;5099640;28;20043;-73
2022/03/16 00:07:36;;;;;;;0.20;0.20;;;;;;;7.70;67.94;101665.19;5099005;28;20059;-73
2022/03/16 00:10:07;;;;;;;0.20;0.20;;;;;;;7.71;68.07;101666.81;5100049;28;20031;-72
2022/03/16 00:12:37;;;;;;;0.20;0.20;;;;;;;7.69;68.56;101669.09;5100750;28;20077;-73
2022/03/16 00:15:03;;;;;;;0.20;0.20;;;;;;;7.58;67.95;101660.16;5101005;28;20097;-72
2022/03/16 00:17:32;;;;;;;0.20;0.20;;;;;;;7.57;68.39;101653.78;5101550;28;20046;-73
2022/03/16 00:20:00;;;;;;;0.20;0.20;;;;;;;7.59;67.25;101645.16;5098427;28;20044;-73
2022/03/16 00:22:29;;;;;;;0.20;0.20;;;;;;;7.59;66.81;101636.84;5096048;28;20024;-72
2022/03/16 00:24:54;;;;;;;0.20;0.20;;;;;;;7.53;66.24;101638.09;5095233;28;20070;-72
2022/03/16 00:27:22;;;;;;;0.20;0.20;;;;;;;7.45;66.34;101636.03;5095205;28;20032;-72
2022/03/16 00:29:53;;;;;;;0.20;0.20;;;;;;;7.55;65.54;101625.56;5094856;28;20047;-72
2022/03/16 00:32:25;;;;;;;0.20;0.20;;;;;;;7.50;65.95;101617.34;5095288;28;20016;-72
2022/03/16 00:34:53;;;;;;;0.20;0.20;;;;;;;7.46;66.05;101621.06;5095668;28;20451;-72
2022/03/16 00:37:21;;;;;;;0.20;0.20;;;;;;;7.53;64.57;101616.75;5095022;28;20032;-72
2022/03/16 00:39:50;;;;;;;0.20;0.20;;;;;;;7.47;64.75;101601.38;5096535;28;20062;-73
2022/03/16 00:42:15;;;;;;;0.20;0.20;;;;;;;7.37;65.04;101617.38;5094987;28;20057;-73
2022/03/16 00:44:41;;;;;;;0.20;0.20;;;;;;;7.34;65.52;101614.06;5094758;28;20115;-72
2022/03/16 00:47:07;;;;;;;0.20;0.20;;;;;;;7.35;64.88;101601.06;5094664;28;20493;-72
2022/03/16 00:49:32;;;;;;;0.20;0.20;;;;;;;7.20;65.00;101580.03;5095252;28;20035;-73
2022/03/16 00:51:58;;;;;;;0.20;0.20;;;;;;;7.30;65.27;101606.69;5094615;28;20604;-73
2022/03/16 00:54:24;;;;;;;0.20;0.20;;;;;;;7.23;65.71;101589.66;5094587;28;20035;-73
2022/03/16 00:56:55;;;;;;;0.20;0.20;;;;;;;7.19;65.50;101589.47;5094544;28;20104;-73
2022/03/16 00:59:21;;;;;;;0.20;0.20;;;;;;;7.17;65.77;101586.16;5094394;28;20081;-73
2022/03/16 01:01:47;;;;;;;0.20;0.20;;;;;;;7.33;65.66;101579.19;5094202;28;20020;-73
2022/03/16 01:04:18;;;;;;;0.20;0.20;;;;;;;7.42;65.72;101578.50;5094481;28;20046;-73
2022/03/16 01:06:46;;;;;;;0.20;0.20;;;;;;;7.32;65.93;101576.75;5093834;28;20027;-73
2022/03/16 01:09:18;;;;;;;0.20;0.20;;;;;;;7.49;65.80;101571.41;5094356;28;20096;-73
2022/03/16 01:11:44;;;;;;;0.20;0.20;;;;;;;7.39;66.52;101559.72;5094844;28;20378;-73
2022/03/16 01:14:15;;;;;;;0.20;0.20;;;;;;;7.27;66.70;101557.47;5094147;28;20028;-73
2022/03/16 01:16:43;;;;;;;0.20;0.20;;;;;;;7.18;68.43;101553.75;5094514;28;20451;-73
2022/03/16 01:19:12;;;;;;;0.20;0.20;;;;;;;7.26;68.39;101551.13;5093642;28;20056;-73
2022/03/16 01:21:37;;;;;;;0.20;0.20;;;;;;;7.12;68.89;101536.44;5094319;28;20035;-73
2022/03/16 01:24:09;;;;;;;0.20;0.20;;;;;;;7.18;69.57;101537.97;5093955;28;20541;-73
2022/03/16 01:26:38;;;;;;;0.20;0.20;;;;;;;7.10;70.64;101535.94;5094082;28;20111;-73
2022/03/16 01:29:04;;;;;;;0.20;0.20;;;;;;;7.17;70.74;101532.75;5094615;28;20046;-73
2022/03/16 01:31:30;;;;;;;0.20;0.20;;;;;;;7.18;70.66;101543.50;5093733;28;20398;-73
2022/03/16 01:33:58;;;;;;;0.20;0.20;;;;;;;7.18;71.34;101540.75;5093877;28;20115;-73
2022/03/16 01:36:24;;;;;;;0.20;0.20;;;;;;;7.09;71.69;101539.84;5093778;28;20032;-73
2022/03/16 01:38:53;;;;;;;0.20;0.20;;;;;;;7.15;72.13;101535.84;5095376;28;20035;-73
2022/03/16 01:41:21;;;;;;;0.20;0.20;;;;;;;7.17;71.83;101532.75;5094168;28;20377;-72
2022/03/16 01:43:51;;;;;;;0.20;0.20;;;;;;;7.06;71.79;101540.44;5094077;28;20032;-73
2022/03/16 01:46:17;;;;;;;0.20;0.20;;;;;;;6.99;72.57;101535.31;5093633;28;20035;-73
2022/03/16 01:48:45;;;;;;;0.20;0.20;;;;;;;6.91;72.01;101537.94;5093578;28;20032;-73
2022/03/16 01:51:14;;;;;;;0.20;0.20;;;;;;;6.87;71.82;101531.38;5093814;28;20027;-73
2022/03/16 01:53:43;;;;;;;0.20;0.20;;;;;;;6.94;71.38;101526.28;5093507;28;20047;-70
2022/03/16 01:56:14;;;;;;;0.20;0.20;;;;;;;6.89;70.06;101523.63;5093415;28;20477;-73
2022/03/16 01:58:40;;;;;;;0.20;0.20;;;;;;;6.92;69.57;101518.28;5093482;28;20028;-73
2022/03/16 02:01:05;;;;;;;0.20;0.20;;;;;;;6.97;68.21;101506.28;5093612;28;20030;-73
2022/03/16 02:03:34;;;;;;;0.20;0.20;;;;;;;7.07;67.38;101514.38;5093827;28;20177;-73
2022/03/16 02:06:02;;;;;;;0.20;0.20;;;;;;;6.67;67.84;101450.44;5093339;28;20470;-73
2022/03/16 02:08:33;;;;;;;0.20;0.20;;;;;;;6.88;68.44;101502.59;5094000;28;20032;-73
2022/03/16 02:11:04;;;;;;;0.20;0.20;;;;;;;6.83;68.75;101509.88;5093172;28;20035;-73
2022/03/16 02:13:36;;;;;;;0.20;0.20;;;;;;;6.83;69.09;101498.81;5093285;28;20499;-73
2022/03/16 02:16:03;;;;;;;0.20;0.20;;;;;;;6.96;69.00;101496.34;5093000;28;20057;-73
2022/03/16 02:18:31;;;;;;;0.20;0.20;;;;;;;6.96;68.79;101499.13;5092075;28;20134;-73
2022/03/16 02:20:59;;;;;;;0.20;0.20;;;;;;;6.99;68.90;101504.06;5092920;28;20061;-72
2022/03/16 02:23:25;;;;;;;0.20;0.20;;;;;;;6.94;69.24;101495.84;5094583;28;20032;-73
2022/03/16 02:25:56;;;;;;;0.20;0.20;;;;;;;6.89;69.47;101502.28;5093004;28;20028;-73
2022/03/16 02:28:23;;;;;;;0.20;0.20;;;;;;;6.85;69.25;101506.78;5093435;28;20063;-73
2022/03/16 02:30:52;;;;;;;0.20;0.20;;;;;;;6.86;68.98;101504.84;5093299;28;20027;-73
2022/03/16 02:33:20;;;;;;;0.20;0.20;;;;;;;6.77;68.51;101499.22;5094783;28;20470;-73
2022/03/16 02:35:49;;;;;;;0.20;0.20;;;;;;;6.73;68.03;101500.94;5093284;28;20031;-73
2022/03/16 02:38:18;;;;;;;0.20;0.20;;;;;;;6.69;67.90;101499.91;5093159;28;20471;-73
2022/03/16 02:40:44;;;;;;;0.20;0.20;;;;;;;6.70;67.63;101505.13;5093485;28;20419;-73
2022/03/16 02:43:09;;;;;;;0.20;0.20;;;;;;;6.71;66.44;101486.59;5093355;28;20470;-73
2022/03/16 02:45:37;;;;;;;0.20;0.20;;;;;;;6.70;67.16;101504.31;5092704;28;20024;-73
2022/03/16 02:48:03;;;;;;;0.20;0.20;;;;;;;6.66;67.52;101504.13;5093260;28;20472;-72
2022/03/16 02:50:32;;;;;;;0.20;0.20;;;;;;;6.70;66.93;101505.13;5092469;28;20035;-73
2022/03/16 02:53:01;;;;;;;0.20;0.20;;;;;;;6.81;66.66;101503.81;5092583;28;20042;-72
2022/03/16 02:55:32;;;;;;;0.20;0.20;;;;;;;6.73;67.16;101498.19;5092521;28;20032;-73
2022/03/16 02:58:00;;;;;;;0.20;0.20;;;;;;;6.66;66.79;101493.06;5094212;28;20043;-73
2022/03/16 03:00:26;;;;;;;0.20;0.20;;;;;;;6.65;67.71;101491.38;5092571;28;20020;-73
2022/03/16 03:02:56;;;;;;;0.20;0.20;;;;;;;6.64;67.75;101494.47;5092580;28;20039;-73
2022/03/16 03:05:22;;;;;;;0.20;0.20;;;;;;;6.61;67.65;101482.09;5092980;28;20036;-73
2022/03/16 03:07:51;;;;;;;0.20;0.20;;;;;;;6.67;67.68;101482.81;5094095;28;20055;-73
2022/03/16 03:10:17;;;;;;;0.20;0.20;;;;;;;6.68;67.15;101478.91;5093747;28;20030;-73
2022/03/16 03:12:46;;;;;;;0.20;0.20;;;;;;;6.66;66.95;101493.06;5092933;28;20107;-73
2022/03/16 03:15:18;;;;;;;0.20;0.20;;;;;;;6.76;67.08;101484.53;5092472;28;20024;-73
2022/03/16 03:17:47;;;;;;;0.20;0.20;;;;;;;6.61;67.30;101484.84;5092759;28;20070;-73
2022/03/16 03:20:13;;;;;;;0.20;0.20;;;;;;;6.62;66.65;101478.19;5091805;28;20493;-73
2022/03/16 03:22:40;;;;;;;0.20;0.20;;;;;;;6.53;67.38;101482.78;5092601;28;20530;-72
2022/03/16 03:25:13;;;;;;;0.20;0.20;;;;;;;6.64;66.71;101477.88;5092281;28;20032;-73
2022/03/16 03:27:42;;;;;;;0.20;0.20;;;;;;;6.54;67.28;101468.63;5092898;28;20119;-73
2022/03/16 03:30:13;;;;;;;0.20;0.20;;;;;;;6.46;67.31;101454.69;5095485;28;20107;-73
2022/03/16 03:32:42;;;;;;;0.20;0.20;;;;;;;6.56;66.76;101465.59;5096804;28;20094;-72
2022/03/16 03:35:08;;;;;;;0.30;0.30;;;;;;;6.59;67.29;101469.66;5096566;28;20036;-72
2022/03/16 03:37:36;;;;;;;0.20;0.20;;;;;;;6.55;66.80;101477.75;5096114;28;20437;-73
2022/03/16 03:40:06;;;;;;;0.20;0.20;;;;;;;6.49;66.17;101467.91;5095962;28;20047;-72
2022/03/16 03:42:38;;;;;;;0.20;0.20;;;;;;;6.51;66.51;101462.91;5096542;28;20032;-73
2022/03/16 03:45:04;;;;;;;0.20;0.20;;;;;;;6.40;66.52;101455.94;5095934;28;20094;-73
2022/03/16 03:47:32;;;;;;;0.20;0.20;;;;;;;6.46;66.90;101466.59;5095863;28;20099;-74
2022/03/16 03:49:57;;;;;;;0.20;0.20;;;;;;;6.55;66.51;101461.16;5095713;28;20049;-72
2022/03/16 03:52:26;;;;;;;0.20;0.20;;;;;;;6.44;67.40;101456.94;5096405;28;20078;-72
2022/03/16 03:54:54;;;;;;;0.20;0.20;;;;;;;6.44;67.36;101451.41;5095812;28;20432;-73
2022/03/16 03:57:23;;;;;;;0.20;0.20;;;;;;;6.52;67.68;101448.78;5095647;28;20035;-72
2022/03/16 03:59:48;;;;;;;0.20;0.20;;;;;;;6.54;67.07;101442.94;5094806;28;20036;-72
2022/03/16 04:02:14;;;;;;;0.20;0.20;;;;;;;6.41;67.61;101438.22;5095452;28;20115;-73
2022/03/16 04:04:41;;;;;;;0.22;0.22;;;;;;;6.38;67.98;101438.81;5095493;28;20035;-73
2022/03/16 04:07:09;;;;;;;0.20;0.20;;;;;;;6.39;67.87;101437.66;5095506;28;20085;-73
2022/03/16 04:09:37;;;;;;;0.20;0.20;;;;;;;6.29;68.86;101431.22;5095496;28;20034;-72
2022/03/16 04:12:03;;;;;;;0.20;0.20;;;;;;;6.14;69.03;101417.66;5094744;28;20035;-73
2022/03/16 04:14:31;;;;;;;0.20;0.20;;;;;;;6.21;69.06;101425.56;5095364;28;20035;-73
2022/03/16 04:17:00;;;;;;;0.20;0.20;;;;;;;6.14;69.04;101431.50;5095672;28;20024;-73
2022/03/16 04:19:25;;;;;;;0.20;0.20;;;;;;;6.16;69.47;101428.41;5094971;28;20051;-73
2022/03/16 04:21:54;;;;;;;0.20;0.20;;;;;;;6.24;68.65;101431.31;5095316;28;20020;-73
2022/03/16 04:24:19;;;;;;;0.20;0.20;;;;;;;6.23;68.01;101432.44;5095478;28;20490;-73
2022/03/16 04:26:47;;;;;;;0.20;0.20;;;;;;;6.18;67.74;101427.00;5095129;28;20123;-73
2022/03/16 04:29:16;;;;;;;0.20;0.20;;;;;;;6.13;67.70;101426.28;5096736;28;20027;-73
2022/03/16 04:31:41;;;;;;;0.20;0.20;;;;;;;6.12;68.11;101433.72;5096193;28;20107;-73
2022/03/16 04:34:07;;;;;;;0.20;0.20;;;;;;;6.17;68.08;101436.41;5095054;28;20126;-73
2022/03/16 04:36:35;;;;;;;0.20;0.20;;;;;;;6.14;67.41;101431.50;5095184;28;20031;-72
2022/03/16 04:39:04;;;;;;;0.20;0.20;;;;;;;6.05;67.85;101427.78;5094809;28;20486;-73
2022/03/16 04:41:35;;;;;;;0.20;0.20;;;;;;;6.08;67.89;101438.22;5094041;28;20026;-73
2022/03/16 04:44:03;;;;;;;0.20;0.20;;;;;;;6.14;67.87;101437.00;5094752;28;20028;-70
2022/03/16 04:46:38;;;;;;;0.20;0.20;;;;;;;6.23;67.16;101440.72;5094839;28;20081;-71
2022/03/16 04:49:03;;;;;;;0.20;0.20;;;;;;;6.22;66.92;101439.06;5095308;28;20040;-71
2022/03/16 04:51:34;;;;;;;0.20;0.20;;;;;;;6.17;66.63;101443.88;5094820;28;20386;-72
2022/03/16 04:54:05;;;;;;;0.20;0.20;;;;;;;6.07;67.91;101442.09;5095161;28;20036;-71
2022/03/16 04:56:31;;;;;;;0.20;0.20;;;;;;;6.00;67.82;101441.66;5094628;28;20094;-71
2022/03/16 04:58:59;;;;;;;0.20;0.20;;;;;;;5.96;67.80;101451.66;5094500;28;20035;-71
2022/03/16 05:01:27;;;;;;;0.20;0.20;;;;;;;6.03;68.48;101464.00;5094989;28;20059;-71
2022/03/16 05:03:56;;;;;;;0.20;0.20;;;;;;;6.02;68.44;101456.03;5095315;28;20417;-71
2022/03/16 05:06:24;;;;;;;0.20;0.20;;;;;;;6.08;68.76;101465.88;5095287;28;20028;-71
2022/03/16 05:08:52;;;;;;;0.20;0.20;;;;;;;6.11;69.27;101451.41;5095364;28;20020;-71
2022/03/16 05:11:22;;;;;;;0.20;0.20;;;;;;;6.21;68.60;101447.66;5094268;28;20089;-71
2022/03/16 05:13:51;;;;;;;0.20;0.20;;;;;;;6.37;68.61;101448.22;5094896;28;20473;-71
2022/03/16 05:16:22;;;;;;;0.20;0.20;;;;;;;6.30;68.22;101449.44;5094161;28;20165;-72
2022/03/16 05:18:48;;;;;;;0.22;0.22;;;;;;;6.43;68.09;101460.81;5093886;28;20087;-71
2022/03/16 05:21:19;;;;;;;0.20;0.20;;;;;;;6.41;67.81;101460.31;5094269;28;20484;-71
2022/03/16 05:23:50;;;;;;;0.20;0.20;;;;;;;6.55;67.17;101463.91;5093985;28;20166;-71
2022/03/16 05:26:16;;;;;;;0.20;0.20;;;;;;;6.59;67.24;101467.72;5094284;28;20488;-71
2022/03/16 05:28:42;;;;;;;0.20;0.20;;;;;;;6.61;66.90;101468.25;5093900;28;20110;-71
2022/03/16 05:31:07;;;;;;;0.22;0.22;;;;;;;6.90;66.85;101475.44;5093982;28;20111;-72
2022/03/16 05:33:33;;;;;;;0.20;0.20;;;;;;;7.40;65.10;101468.03;5093867;28;20067;-71
2022/03/16 05:36:02;;;;;;;0.20;0.20;;;;;;;7.86;64.04;101467.81;5094109;28;20024;-71
2022/03/16 05:38:31;;;;;;;0.20;0.20;;;;;;;8.58;62.16;101466.06;5093912;28;20100;-71
2022/03/16 05:40:59;;;;;;;0.20;0.20;;;;;;;9.23;59.71;101461.75;5094241;28;20028;-71
2022/03/16 05:43:25;;;;;;;0.20;0.20;;;;;;;9.95;57.62;101466.72;5093606;28;20115;-71
2022/03/16 05:45:56;;;;;;;0.20;0.20;;;;;;;10.51;54.98;101470.47;5093534;28;20116;-71
2022/03/16 05:48:22;;;;;;;0.20;0.20;;;;;;;11.02;53.45;101474.19;5094317;28;20036;-71
2022/03/16 05:50:47;;;;;;;0.20;0.20;;;;;;;11.29;51.99;101464.56;5093493;28;20032;-72
2022/03/16 05:53:19;;;;;;;0.20;0.20;;;;;;;11.53;50.00;101459.16;5094044;28;20028;-72
2022/03/16 05:55:47;;;;;;;0.20;0.20;;;;;;;12.37;49.25;101463.91;5093541;28;20077;-71
2022/03/16 05:58:19;;;;;;;0.20;0.20;;;;;;;12.80;47.13;101450.28;5093958;28;20032;-71
2022/03/16 06:00:47;;;;;;;0.20;0.20;;;;;;;13.50;44.96;101461.34;5094279;28;20028;-72
2022/03/16 06:03:13;;;;;;;0.20;0.20;;;;;;;13.45;44.47;101453.22;5096343;28;20509;-74
2022/03/16 06:05:44;;;;;;;0.20;0.20;;;;;;;13.43;45.11;101463.94;5094332;28;20059;-72
2022/03/16 06:08:12;;;;;;;0.20;0.20;;;;;;;12.98;46.76;101461.22;5093766;28;20122;-71
2022/03/16 06:10:39;;;;;;;0.20;0.20;;;;;;;13.36;47.71;101456.13;5093143;28;20111;-71
2022/03/16 06:13:10;;;;;;;0.20;0.20;;;;;;;13.72;46.83;101453.63;5093073;28;20097;-71
2022/03/16 06:15:43;;;;;;;0.20;0.20;;;;;;;13.71;46.92;101457.59;5093140;28;20466;-72
2022/03/16 06:18:09;;;;;;;0.20;0.20;;;;;;;13.70;46.92;101458.78;5096104;28;20035;-71
2022/03/16 06:20:38;;;;;;;0.20;0.20;;;;;;;13.91;46.58;101448.22;5114896;28;20106;-71
2022/03/16 06:23:11;;;;;;;0.20;0.20;;;;;;;14.06;46.51;101455.84;5096195;28;20104;-71
2022/03/16 06:25:36;;;;;;;0.20;0.20;;;;;;;13.92;47.04;101449.84;5095975;28;20019;-71
2022/03/16 06:28:05;;;;;;;0.20;0.20;;;;;;;14.41;46.71;101449.63;5096814;28;20359;-71
2022/03/16 06:30:30;;;;;;;0.20;0.20;;;;;;;14.91;44.78;101450.94;5096080;28;20428;-71
2022/03/16 06:33:02;;;;;;;0.20;0.20;;;;;;;15.59;43.49;101447.78;5114180;28;20027;-71
2022/03/16 06:35:28;;;;;;;0.20;0.20;;;;;;;16.05;42.94;101442.38;5096541;28;20059;-72
2022/03/16 06:37:59;;;;;;;0.20;0.20;;;;;;;16.64;41.65;101445.94;5096238;28;20512;-71
2022/03/16 06:40:24;;;;;;;0.20;0.20;;;;;;;16.84;40.36;101446.72;5096295;28;20420;-72
2022/03/16 06:42:58;;;;;;;0.20;0.20;;;;;;;17.10;39.73;101452.38;5095793;28;20031;-71
2022/03/16 06:45:24;;;;;;;;;;;;;;;17.64;39.34;101453.19;5096144;28;20035;-71
2022/03/16 06:47:57;;;;;;;0.20;0.20;;;;;;;17.93;38.54;101448.78;5095717;28;19907;-72
2022/03/16 06:50:28;;;;;;;0.20;0.20;;;;;;;18.05;38.05;101446.53;5096218;28;20484;-71
2022/03/16 06:52:55;;;;;;;0.20;0.20;;;;;;;18.71;36.96;101446.88;5095659;28;20030;-71
2022/03/16 06:55:24;;;;;;;0.20;0.20;;;;;;;19.21;36.50;101455.78;5095666;28;20147;-72
2022/03/16 06:57:50;;;;;;;0.20;0.20;;;;;;;18.78;36.05;101454.59;5095925;28;20454;-71
2022/03/16 07:00:18;;;;;;;0.20;0.20;;;;;;;18.90;36.64;101451.47;5095632;28;20053;-72
2022/03/16 07:02:58;;;;;;;0.20;0.20;;;;;;;18.59;36.32;101444.34;5095578;28;20030;-72
2022/03/16 07:05:32;;;;;;;0.20;0.20;;;;;;;18.48;37.14;101451.84;5099465;28;20119;-72
2022/03/16 07:07:59;;;;;;;0.15;0.15;;;;;;;18.06;37.53;101453.00;5100032;28;20032;-72
2022/03/16 07:10:29;;;;;;;0.20;0.20;;;;;;;18.52;37.30;101452.69;5099649;28;20469;-72
2022/03/16 07:12:58;;;;;;;0.20;0.20;;;;;;;18.27;37.04;101447.63;5099831;28;20149;-72
2022/03/16 07:15:24;;;;;;;0.20;0.20;;;;;;;18.26;36.36;101440.34;5099652;28;20059;-72
2022/03/16 07:17:50;;;;;;;0.20;0.20;;;;;;;18.21;37.47;101451.13;5099303;28;20027;-72
2022/03/16 07:20:16;;;;;;;0.20;0.20;;;;;;;17.50;38.52;101442.53;5117579;28;20058;-71
2022/03/16 07:22:41;;;;;;;0.20;0.20;;;;;;;18.05;36.65;101428.81;5099249;28;20474;-72
2022/03/16 07:25:09;;;;;;;0.20;0.20;;;;;;;18.33;36.93;101431.97;5116825;28;20039;-72
2022/03/16 07:27:44;;;;;;;0.20;0.20;;;;;;;18.50;36.20;101441.81;5099172;28;20474;-71
2022/03/16 07:30:10;;;;;;;0.20;0.20;;;;;;;18.57;35.80;101443.88;5099174;28;20080;-72
2022/03/16 07:32:39;;;;;;;0.10;0.10;;;;;;;18.58;36.27;101439.88;5099199;28;20023;-71
2022/03/16 07:35:06;;;;;;;0.20;0.20;;;;;;;18.61;36.86;101443.94;5099010;28;20035;-71
2022/03/16 07:37:34;;;;;;;0.20;0.20;;;;;;;18.32;37.40;101450.09;5099682;28;20361;-72
2022/03/16 07:40:03;;;;;;;0.20;0.20;;;;;;;17.51;38.80;101449.78;5102327;28;20064;-74
2022/03/16 07:42:32;;;;;;;0.20;0.20;;;;;;;16.66;41.29;101438.72;5104683;28;20056;-77
2022/03/16 07:44:58;;;;;;;0.20;0.20;;;;;;;16.65;41.73;101441.94;5104403;28;20043;-74
2022/03/16 07:47:25;;;;;;;0.20;0.20;;;;;;;16.90;40.08;101419.91;5104461;28;20112;-73
2022/03/16 07:49:56;;;;;;;0.20;0.20;;;;;;;16.77;40.64;101451.00;5102820;28;20034;-72
2022/03/16 07:52:28;;;;;;;0.20;0.20;;;;;;;16.63;41.45;101447.94;5119541;28;20030;-71
2022/03/16 07:54:54;;;;;;;0.20;0.20;;;;;;;16.72;41.92;101442.91;5099137;28;20457;-71
2022/03/16 07:57:22;;;;;;;0.20;0.20;;;;;;;17.20;40.58;101439.66;5098639;28;20032;-72
2022/03/16 07:59:48;;;;;;;0.20;0.20;;;;;;;17.22;41.04;101443.75;5098703;28;20036;-71
2022/03/16 08:02:22;;;;;;;0.20;0.20;;;;;;;17.62;39.02;101441.50;5098471;28;20485;-72
2022/03/16 08:04:53;;;;;;;0.20;0.20;;;;;;;17.78;39.32;101431.69;5098977;28;20031;-71
2022/03/16 08:07:22;;;;;;;0.20;0.20;;;;;;;17.10;40.35;101441.16;5098503;28;20051;-71
2022/03/16 08:09:50;;;;;;;0.20;0.20;;;;;;;17.38;40.91;101439.97;5098649;28;20535;-71
2022/03/16 08:12:16;;;;;;;0.10;0.10;;;;;;;17.43;40.38;101436.81;5098799;28;20028;-71
2022/03/16 08:14:44;;;;;;;0.10;0.10;;;;;;;17.75;39.27;101442.94;5097945;28;20038;-72
2022/03/16 08:17:13;;;;;;;0.10;0.10;;;;;;;17.98;37.78;101437.19;5098080;28;20039;-71
2022/03/16 08:19:39;;;;;;;0.20;0.20;;;;;;;17.05;38.03;101437.84;5098285;28;20048;-71
2022/03/16 08:22:07;;;;;;;0.20;0.20;;;;;;;17.70;36.57;101418.72;5117370;28;20099;-71
2022/03/16 08:24:36;;;;;;;0.10;0.10;;;;;;;17.70;37.30;101418.72;5098629;28;20462;-71
2022/03/16 08:27:01;;;;;;;0.10;0.10;;;;;;;18.52;35.06;101418.88;5098243;28;20114;-72
2022/03/16 08:29:29;;;;;;;0.20;0.20;;;;;;;17.64;35.33;101417.44;5098906;28;20118;-72
2022/03/16 08:31:58;;;;;;;0.20;0.20;;;;;;;17.98;35.71;101417.47;5117248;28;20024;-71
2022/03/16 08:34:26;;;;;;;0.20;0.20;;;;;;;18.57;35.40;101413.69;5098633;28;20027;-71
2022/03/16 08:36:52;;;;;;;0.10;0.10;;;;;;;19.18;33.00;101421.91;5098049;28;20059;-72
2022/03/16 08:39:21;;;;;;;0.10;0.10;;;;;;;19.71;32.98;101418.59;5097725;28;20035;-71
2022/03/16 08:41:49;;;;;;;0.10;0.10;;;;;;;18.94;33.12;101417.69;5098263;28;20067;-71
2022/03/16 08:44:15;;;;;;;0.10;0.10;;;;;;;18.73;33.47;101413.47;5098046;28;20024;-72
2022/03/16 08:46:46;;;;;;;0.20;0.20;;;;;;;19.95;31.41;101405.81;5097344;28;20036;-71
2022/03/16 08:49:14;;;;;;;0.10;0.10;;;;;;;20.85;30.66;101416.13;5097872;28;20023;-72
2022/03/16 08:51:43;;;;;;;0.10;0.10;;;;;;;20.18;30.39;101409.13;5098153;28;20032;-71
2022/03/16 08:54:12;;;;;;;0.10;0.10;;;;;;;19.92;30.95;101403.78;5097588;28;20030;-71
2022/03/16 08:56:41;;;;;;;0.10;0.10;;;;;;;19.72;31.61;101398.47;5097757;28;20093;-71
2022/03/16 08:59:09;;;;;;;0.20;0.20;;;;;;;19.61;32.08;101397.63;5097456;28;20027;-72
2022/03/16 09:01:35;;;;;;;0.10;0.10;;;;;;;18.54;33.59;101396.78;5097571;28;20024;-72
2022/03/16 09:04:02;;;;;;;0.10;0.10;;;;;;;19.38;32.80;101384.53;5097646;28;20461;-72
2022/03/16 09:06:29;;;;;;;0.20;0.20;;;;;;;19.40;32.11;101389.00;5097372;28;20035;-71
2022/03/16 09:08:57;;;;;;;0.10;0.10;;;;;;;20.29;31.21;101384.50;5097634;28;20500;-72
2022/03/16 09:11:26;;;;;;;0.20;0.20;;;;;;;20.45;30.42;101377.69;5097290;28;20081;-72
2022/03/16 09:13:55;;;;;;;0.20;0.20;;;;;;;20.59;30.31;101375.72;5097246;28;20028;-71
2022/03/16 09:16:23;;;;;;;0.20;0.20;;;;;;;20.33;30.80;101385.34;5097752;28;20035;-72
2022/03/16 09:18:54;;;;;;;0.20;0.20;;;;;;;20.43;30.96;101383.75;5097294;28;20055;-71
2022/03/16 09:21:25;;;;;;;0.20;0.20;;;;;;;21.28;29.86;101371.63;5097709;28;20114;-72
2022/03/16 09:23:54;;;;;;;0.10;0.10;;;;;;;20.52;30.03;101363.59;5115725;28;20020;-71
2022/03/16 09:26:23;;;;;;;0.10;0.10;;;;;;;20.23;31.11;101360.69;5096769;28;20023;-72
2022/03/16 09:28:52;;;;;;;0.10;0.10;;;;;;;20.12;31.15;101368.34;5097250;28;20092;-72
2022/03/16 09:31:18;;;;;;;0.20;0.20;;;;;;;20.49;30.31;101367.22;5096915;28;20028;-71
2022/03/16 09:33:44;;;;;;;0.17;0.17;;;;;;;21.21;29.92;101366.00;5097223;28;20148;-71
2022/03/16 09:36:15;;;;;;;0.13;0.13;;;;;;;21.48;29.37;101355.03;5096785;28;20030;-71
2022/03/16 09:38:41;;;;;;;0.17;0.17;;;;;;;21.29;29.19;101356.25;5096862;28;20027;-71
2022/03/16 09:41:06;;;;;;;0.10;0.10;;;;;;;21.52;29.23;101352.16;5096493;28;20019;-72
2022/03/16 09:43:38;;;;;;;0.15;0.15;;;;;;;21.88;28.97;101358.50;5096647;28;20027;-71
2022/03/16 09:46:15;;;;;;;0.10;0.10;;;;;;;20.82;30.18;101349.84;5096798;28;20027;-72
2022/03/16 09:48:41;;;;;;;0.10;0.10;;;;;;;21.52;29.27;101330.34;5093573;28;20125;-72
2022/03/16 09:51:09;;;;;;;0.10;0.10;;;;;;;22.25;28.83;101343.72;5097174;28;20378;-72
2022/03/16 09:53:38;;;;;;;0.10;0.10;;;;;;;22.72;28.44;101336.47;5096361;28;20111;-71
2022/03/16 09:56:05;;;;;;;0.10;0.10;;;;;;;23.03;28.13;101336.63;5096355;28;20024;-72
2022/03/16 09:58:33;;;;;;;0.10;0.10;;;;;;;22.51;28.39;101327.34;5096370;28;20028;-72
2022/03/16 10:01:07;;;;;;;0.10;0.10;;;;;;;20.84;30.41;101327.66;5096249;28;20474;-71
2022/03/16 10:03:36;;;;;;;0.15;0.15;;;;;;;20.07;32.01;101320.69;5096849;28;20355;-72
2022/03/16 10:06:08;;;;;;;0.13;0.13;;;;;;;19.41;33.04;101323.69;5096369;28;20028;-72
2022/03/16 10:08:38;;;;;;;0.20;0.20;;;;;;;18.60;34.15;101321.94;5115113;28;20024;-71
2022/03/16 10:13:58;;;;;;;0.20;0.20;;;;;;;19.07;33.79;101311.81;5114691;28;20099;-71
2022/03/16 10:17:43;;;;;;;0.20;0.20;;;;;;;18.89;33.84;101308.06;5096693;28;20024;-71
2022/03/16 10:19:12;;;;;;;0.20;0.20;;;;;;;18.60;34.04;101296.56;5113765;28;20047;-71
2022/03/16 10:21:38;;;;;;;0.10;0.10;;;;;;;18.74;34.05;101282.59;5096039;28;20099;-71
2022/03/16 10:24:07;;;;;;;0.10;0.10;;;;;;;18.31;35.07;101287.06;5096352;28;20031;-71
2022/03/16 10:26:50;;;;;;;0.10;0.10;;;;;;;19.20;34.38;101289.72;5096058;28;20458;-71
2022/03/16 10:29:16;;;;;;;0.10;0.10;;;;;;;20.01;31.93;101277.91;5114318;28;20156;-72
2022/03/16 10:32:05;;;;;;;0.10;0.10;;;;;;;19.63;32.44;101274.59;5095945;28;20052;-72
2022/03/16 10:34:32;;;;;;;0.10;0.10;;;;;;;20.40;31.72;101277.16;5096133;28;20153;-71
2022/03/16 10:37:02;;;;;;;0.10;0.10;;;;;;;20.36;32.07;101260.19;5096068;28;20390;-72
2022/03/16 10:39:37;;;;;;;0.10;0.10;;;;;;;19.71;33.08;101272.63;5095329;28;20466;-72
2022/03/16 10:47:57;;;;;;;0.10;0.10;;;;;;;20.32;32.48;101259.38;5113999;28;20092;-72
2022/03/16 10:50:25;;;;;;;0.10;0.10;;;;;;;20.52;32.25;101259.00;5095942;28;20032;-72
2022/03/16 10:52:57;;;;;;;0.10;0.10;;;;;;;20.63;32.67;101254.16;5095895;28;20470;-71
2022/03/16 10:55:22;;;;;;;0.15;0.15;;;;;;;20.27;32.53;101251.31;5095396;28;20036;-72
2022/03/16 10:57:50;;;;;;;0.10;0.10;;;;;;;21.24;31.45;101246.28;5095715;28;20024;-72
2022/03/16 11:00:17;;;;;;;0.20;0.20;;;;;;;21.03;31.56;101249.19;5095460;28;20031;-71
2022/03/16 11:02:44;;;;;;;0.10;0.10;;;;;;;20.62;32.17;101244.06;5095234;28;20397;-72
2022/03/16 11:05:11;;;;;;;0.10;0.10;;;;;;;20.70;31.45;101231.50;5095985;28;20055;-73
2022/03/16 11:07:38;;;;;;;0.10;0.10;;;;;;;20.81;32.03;101223.78;5096034;28;20032;-72
2022/03/16 11:10:08;;;;;;;0.20;0.20;;;;;;;21.10;31.83;101227.34;5078879;28;20031;-72
2022/03/16 11:15:21;;;;;;;0.10;0.10;;;;;;;19.61;33.62;101219.75;5114492;28;20047;-72
2022/03/16 11:17:53;;;;;;;0.10;0.10;;;;;;;19.77;33.78;101214.56;5095318;28;20031;-71
2022/03/16 11:20:19;;;;;;;0.20;0.20;;;;;;;20.19;32.96;101218.63;5072747;28;20550;-73
2022/03/16 11:25:49;;;;;;;0.10;0.10;;;;;;;20.07;33.85;101207.69;5041741;28;20479;-72
2022/03/16 11:28:42;;;;;;;0.10;0.10;;;;;;;20.07;33.80;101199.22;5072606;28;20035;-72
2022/03/16 11:31:22;;;;;;;0.10;0.10;;;;;;;19.23;35.37;101188.19;5070720;28;20454;-72
2022/03/16 11:33:52;;;;;;;0.10;0.10;;;;;;;19.34;35.43;101189.03;5071984;28;20052;-71
2022/03/16 11:36:32;;;;;;;0.10;0.10;;;;;;;19.35;35.36;101182.16;5071670;28;20035;-71
2022/03/16 11:39:03;;;;;;;0.10;0.10;;;;;;;20.15;34.32;101175.44;5072112;28;20419;-72
2022/03/16 11:41:32;;;;;;;0.10;0.10;;;;;;;19.56;35.64;101169.31;5071900;28;20028;-72
2022/03/16 11:44:26;;;;;;;0.10;0.10;;;;;;;19.15;36.20;101175.25;5072041;28;20095;-72
2022/03/16 11:47:09;;;;;;;0.10;0.10;;;;;;;18.94;37.34;101167.50;5071920;28;20028;-71
2022/03/16 11:49:36;;;;;;;;;;;;;;;19.26;36.69;101152.72;5073033;28;20028;-72